sensor_id;sensor_type;location;lat;lon;timestamp;P1;durP1;ratioP1;P2;durP2;ratioP2
8225;SDS011;4154;48.810;9.012;2024-01-25T00:01:19;13.63;;;3.77;;
8225;SDS011;4154;48.810;9.012;2024-01-25T00:03:44;13.13;;;3.70;;
8225;SDS011;4154;48.810;9.012;2024-01-25T00:06:10;15.33;;;3.90;;
8225;SDS011;4154;48.810;9.012;2024-01-25T00:08:36;10.70;;;3.03;;
8225;SDS011;4154;48.810;9.012;2024-01-25T00:11:02;15.00;;;3.30;;
8225;SDS011;4154;48.810;9.012;2024-01-25T00:13:28;12.10;;;3.53;;
8225;SDS011;4154;48.810;9.012;2024-01-25T00:15:54;13.43;;;3.17;;
8225;SDS011;4154;48.810;9.012;2024-01-25T00:18:20;11.80;;;3.27;;
8225;SDS011;4154;48.810;9.012;2024-01-25T00:20:45;13.67;;;3.10;;
8225;SDS011;4154;48.810;9.012;2024-01-25T00:23:11;19.40;;;4.20;;
8225;SDS011;4154;48.810;9.012;2024-01-25T00:25:37;12.57;;;3.10;;
8225;SDS011;4154;48.810;9.012;2024-01-25T00:28:03;13.57;;;3.60;;
8225;SDS011;4154;48.810;9.012;2024-01-25T00:30:29;13.90;;;3.37;;
8225;SDS011;4154;48.810;9.012;2024-01-25T00:32:58;18.03;;;3.70;;
8225;SDS011;4154;48.810;9.012;2024-01-25T00:35:24;14.00;;;3.47;;
8225;SDS011;4154;48.810;9.012;2024-01-25T00:37:50;15.70;;;3.23;;
8225;SDS011;4154;48.810;9.012;2024-01-25T00:40:16;12.03;;;2.80;;
8225;SDS011;4154;48.810;9.012;2024-01-25T00:42:44;11.87;;;3.23;;
8225;SDS011;4154;48.810;9.012;2024-01-25T00:45:18;13.23;;;3.57;;
8225;SDS011;4154;48.810;9.012;2024-01-25T00:47:45;14.27;;;3.03;;
8225;SDS011;4154;48.810;9.012;2024-01-25T00:50:12;12.47;;;3.20;;
8225;SDS011;4154;48.810;9.012;2024-01-25T00:52:38;11.90;;;3.20;;
8225;SDS011;4154;48.810;9.012;2024-01-25T00:55:04;14.87;;;3.47;;
8225;SDS011;4154;48.810;9.012;2024-01-25T00:57:32;17.43;;;3.60;;
8225;SDS011;4154;48.810;9.012;2024-01-25T00:59:58;15.17;;;3.77;;
8225;SDS011;4154;48.810;9.012;2024-01-25T01:02:25;12.43;;;3.67;;
8225;SDS011;4154;48.810;9.012;2024-01-25T01:04:59;13.97;;;3.10;;
8225;SDS011;4154;48.810;9.012;2024-01-25T01:07:25;11.57;;;3.30;;
8225;SDS011;4154;48.810;9.012;2024-01-25T01:09:51;13.20;;;3.27;;
8225;SDS011;4154;48.810;9.012;2024-01-25T01:12:17;13.80;;;3.53;;
8225;SDS011;4154;48.810;9.012;2024-01-25T01:14:42;12.23;;;3.47;;
8225;SDS011;4154;48.810;9.012;2024-01-25T01:17:08;10.63;;;3.20;;
8225;SDS011;4154;48.810;9.012;2024-01-25T01:19:34;15.10;;;3.37;;
8225;SDS011;4154;48.810;9.012;2024-01-25T01:22:00;13.60;;;3.67;;
8225;SDS011;4154;48.810;9.012;2024-01-25T01:24:25;16.67;;;3.83;;
8225;SDS011;4154;48.810;9.012;2024-01-25T01:26:51;11.90;;;3.00;;
8225;SDS011;4154;48.810;9.012;2024-01-25T01:29:17;11.87;;;3.30;;
8225;SDS011;4154;48.810;9.012;2024-01-25T01:31:43;15.07;;;3.73;;
8225;SDS011;4154;48.810;9.012;2024-01-25T01:34:09;14.20;;;3.30;;
8225;SDS011;4154;48.810;9.012;2024-01-25T01:36:37;10.53;;;2.97;;
8225;SDS011;4154;48.810;9.012;2024-01-25T01:39:03;14.17;;;3.20;;
8225;SDS011;4154;48.810;9.012;2024-01-25T01:41:29;15.10;;;3.37;;
8225;SDS011;4154;48.810;9.012;2024-01-25T01:43:54;13.33;;;3.37;;
8225;SDS011;4154;48.810;9.012;2024-01-25T01:49:03;14.93;;;3.57;;
8225;SDS011;4154;48.810;9.012;2024-01-25T01:51:30;13.47;;;3.27;;
8225;SDS011;4154;48.810;9.012;2024-01-25T01:53:57;12.80;;;2.97;;
8225;SDS011;4154;48.810;9.012;2024-01-25T01:56:24;14.07;;;3.23;;
8225;SDS011;4154;48.810;9.012;2024-01-25T01:58:54;14.13;;;3.37;;
8225;SDS011;4154;48.810;9.012;2024-01-25T02:01:28;9.90;;;3.00;;
8225;SDS011;4154;48.810;9.012;2024-01-25T02:03:53;10.43;;;2.93;;
8225;SDS011;4154;48.810;9.012;2024-01-25T02:06:20;15.53;;;3.23;;
8225;SDS011;4154;48.810;9.012;2024-01-25T02:08:48;11.30;;;3.00;;
8225;SDS011;4154;48.810;9.012;2024-01-25T02:11:16;11.17;;;2.90;;
8225;SDS011;4154;48.810;9.012;2024-01-25T02:13:42;13.00;;;3.40;;
8225;SDS011;4154;48.810;9.012;2024-01-25T02:16:09;11.87;;;2.80;;
8225;SDS011;4154;48.810;9.012;2024-01-25T02:18:35;8.37;;;2.40;;
8225;SDS011;4154;48.810;9.012;2024-01-25T02:21:01;8.20;;;2.60;;
8225;SDS011;4154;48.810;9.012;2024-01-25T02:23:27;11.17;;;2.80;;
8225;SDS011;4154;48.810;9.012;2024-01-25T02:25:52;11.33;;;3.40;;
8225;SDS011;4154;48.810;9.012;2024-01-25T02:28:18;9.83;;;3.30;;
8225;SDS011;4154;48.810;9.012;2024-01-25T02:30:44;11.50;;;2.93;;
8225;SDS011;4154;48.810;9.012;2024-01-25T02:33:09;11.30;;;3.00;;
8225;SDS011;4154;48.810;9.012;2024-01-25T02:35:37;13.83;;;3.27;;
8225;SDS011;4154;48.810;9.012;2024-01-25T02:38:03;11.93;;;2.80;;
8225;SDS011;4154;48.810;9.012;2024-01-25T02:40:29;12.70;;;3.23;;
8225;SDS011;4154;48.810;9.012;2024-01-25T02:42:55;10.13;;;2.80;;
8225;SDS011;4154;48.810;9.012;2024-01-25T02:45:21;11.10;;;2.73;;
8225;SDS011;4154;48.810;9.012;2024-01-25T02:47:47;9.33;;;3.03;;
8225;SDS011;4154;48.810;9.012;2024-01-25T02:50:13;10.73;;;2.93;;
8225;SDS011;4154;48.810;9.012;2024-01-25T02:52:40;11.60;;;3.27;;
8225;SDS011;4154;48.810;9.012;2024-01-25T02:55:06;10.00;;;2.90;;
8225;SDS011;4154;48.810;9.012;2024-01-25T02:57:32;8.00;;;2.53;;
8225;SDS011;4154;48.810;9.012;2024-01-25T02:59:58;12.10;;;3.03;;
8225;SDS011;4154;48.810;9.012;2024-01-25T03:02:24;10.57;;;2.70;;
8225;SDS011;4154;48.810;9.012;2024-01-25T03:04:50;11.80;;;3.30;;
8225;SDS011;4154;48.810;9.012;2024-01-25T03:07:15;11.77;;;3.03;;
8225;SDS011;4154;48.810;9.012;2024-01-25T03:09:42;12.93;;;3.00;;
8225;SDS011;4154;48.810;9.012;2024-01-25T03:12:07;12.27;;;3.10;;
8225;SDS011;4154;48.810;9.012;2024-01-25T03:14:33;11.50;;;2.80;;
8225;SDS011;4154;48.810;9.012;2024-01-25T03:16:58;11.53;;;3.20;;
8225;SDS011;4154;48.810;9.012;2024-01-25T03:19:25;13.07;;;3.37;;
8225;SDS011;4154;48.810;9.012;2024-01-25T03:21:52;12.70;;;2.90;;
8225;SDS011;4154;48.810;9.012;2024-01-25T03:24:19;10.30;;;2.90;;
8225;SDS011;4154;48.810;9.012;2024-01-25T03:26:45;11.27;;;3.20;;
8225;SDS011;4154;48.810;9.012;2024-01-25T03:29:11;11.43;;;3.47;;
8225;SDS011;4154;48.810;9.012;2024-01-25T03:31:37;8.60;;;2.83;;
8225;SDS011;4154;48.810;9.012;2024-01-25T03:34:03;10.37;;;3.10;;
8225;SDS011;4154;48.810;9.012;2024-01-25T03:36:29;14.30;;;3.07;;
8225;SDS011;4154;48.810;9.012;2024-01-25T03:38:56;14.93;;;3.70;;
8225;SDS011;4154;48.810;9.012;2024-01-25T03:41:22;12.73;;;2.87;;
8225;SDS011;4154;48.810;9.012;2024-01-25T03:43:48;11.03;;;3.10;;
8225;SDS011;4154;48.810;9.012;2024-01-25T03:46:14;12.70;;;3.40;;
8225;SDS011;4154;48.810;9.012;2024-01-25T03:48:41;10.13;;;2.70;;
8225;SDS011;4154;48.810;9.012;2024-01-25T03:51:06;10.40;;;2.90;;
8225;SDS011;4154;48.810;9.012;2024-01-25T03:53:32;8.27;;;2.70;;
8225;SDS011;4154;48.810;9.012;2024-01-25T03:55:58;14.37;;;2.97;;
8225;SDS011;4154;48.810;9.012;2024-01-25T03:58:24;17.10;;;3.37;;
8225;SDS011;4154;48.810;9.012;2024-01-25T04:00:50;10.77;;;2.97;;
8225;SDS011;4154;48.810;9.012;2024-01-25T04:03:15;18.93;;;3.57;;
8225;SDS011;4154;48.810;9.012;2024-01-25T04:05:41;10.60;;;3.03;;
8225;SDS011;4154;48.810;9.012;2024-01-25T04:08:07;12.47;;;3.23;;
8225;SDS011;4154;48.810;9.012;2024-01-25T04:10:32;10.23;;;2.93;;
8225;SDS011;4154;48.810;9.012;2024-01-25T04:12:58;12.83;;;3.10;;
8225;SDS011;4154;48.810;9.012;2024-01-25T04:15:29;9.90;;;2.90;;
8225;SDS011;4154;48.810;9.012;2024-01-25T04:17:55;11.07;;;3.13;;
8225;SDS011;4154;48.810;9.012;2024-01-25T04:20:21;15.07;;;3.83;;
8225;SDS011;4154;48.810;9.012;2024-01-25T04:22:47;12.37;;;3.10;;
8225;SDS011;4154;48.810;9.012;2024-01-25T04:25:13;11.47;;;2.90;;
8225;SDS011;4154;48.810;9.012;2024-01-25T04:27:38;10.00;;;2.87;;
8225;SDS011;4154;48.810;9.012;2024-01-25T04:30:05;11.57;;;3.00;;
8225;SDS011;4154;48.810;9.012;2024-01-25T04:32:32;10.87;;;3.30;;
8225;SDS011;4154;48.810;9.012;2024-01-25T04:34:58;11.80;;;3.40;;
8225;SDS011;4154;48.810;9.012;2024-01-25T04:37:23;11.50;;;3.17;;
8225;SDS011;4154;48.810;9.012;2024-01-25T04:39:49;11.50;;;3.10;;
8225;SDS011;4154;48.810;9.012;2024-01-25T04:42:15;12.10;;;3.20;;
8225;SDS011;4154;48.810;9.012;2024-01-25T04:44:41;11.90;;;3.23;;
8225;SDS011;4154;48.810;9.012;2024-01-25T04:47:06;14.07;;;3.63;;
8225;SDS011;4154;48.810;9.012;2024-01-25T04:49:32;10.67;;;2.87;;
8225;SDS011;4154;48.810;9.012;2024-01-25T04:51:57;11.73;;;2.93;;
8225;SDS011;4154;48.810;9.012;2024-01-25T04:54:23;12.93;;;3.40;;
8225;SDS011;4154;48.810;9.012;2024-01-25T04:56:49;11.30;;;3.10;;
8225;SDS011;4154;48.810;9.012;2024-01-25T04:59:14;13.13;;;3.10;;
8225;SDS011;4154;48.810;9.012;2024-01-25T05:01:40;13.67;;;2.90;;
8225;SDS011;4154;48.810;9.012;2024-01-25T05:04:06;13.40;;;3.23;;
8225;SDS011;4154;48.810;9.012;2024-01-25T05:06:31;12.10;;;3.03;;
8225;SDS011;4154;48.810;9.012;2024-01-25T05:08:57;11.80;;;3.23;;
8225;SDS011;4154;48.810;9.012;2024-01-25T05:11:23;13.97;;;3.50;;
8225;SDS011;4154;48.810;9.012;2024-01-25T05:13:49;14.00;;;3.27;;
8225;SDS011;4154;48.810;9.012;2024-01-25T05:16:14;11.97;;;3.17;;
8225;SDS011;4154;48.810;9.012;2024-01-25T05:18:40;11.07;;;3.40;;
8225;SDS011;4154;48.810;9.012;2024-01-25T05:21:06;11.23;;;2.80;;
8225;SDS011;4154;48.810;9.012;2024-01-25T05:23:31;10.50;;;3.23;;
8225;SDS011;4154;48.810;9.012;2024-01-25T05:25:57;10.53;;;3.37;;
8225;SDS011;4154;48.810;9.012;2024-01-25T05:28:22;13.07;;;3.27;;
8225;SDS011;4154;48.810;9.012;2024-01-25T05:30:49;13.80;;;3.37;;
8225;SDS011;4154;48.810;9.012;2024-01-25T05:33:15;11.50;;;3.17;;
8225;SDS011;4154;48.810;9.012;2024-01-25T05:35:41;12.93;;;3.30;;
8225;SDS011;4154;48.810;9.012;2024-01-25T05:38:07;9.60;;;3.40;;
8225;SDS011;4154;48.810;9.012;2024-01-25T05:40:32;18.37;;;4.57;;
8225;SDS011;4154;48.810;9.012;2024-01-25T05:42:58;14.93;;;3.67;;
8225;SDS011;4154;48.810;9.012;2024-01-25T05:45:25;13.17;;;3.50;;
8225;SDS011;4154;48.810;9.012;2024-01-25T05:47:51;12.57;;;3.13;;
8225;SDS011;4154;48.810;9.012;2024-01-25T05:50:16;15.97;;;3.30;;
8225;SDS011;4154;48.810;9.012;2024-01-25T05:52:43;10.53;;;3.67;;
8225;SDS011;4154;48.810;9.012;2024-01-25T05:55:08;15.33;;;3.77;;
8225;SDS011;4154;48.810;9.012;2024-01-25T05:57:34;14.57;;;3.80;;
8225;SDS011;4154;48.810;9.012;2024-01-25T06:00:02;11.77;;;3.50;;
8225;SDS011;4154;48.810;9.012;2024-01-25T06:02:30;11.93;;;3.07;;
8225;SDS011;4154;48.810;9.012;2024-01-25T06:04:56;11.80;;;3.87;;
8225;SDS011;4154;48.810;9.012;2024-01-25T06:07:23;11.43;;;3.13;;
8225;SDS011;4154;48.810;9.012;2024-01-25T06:09:49;11.87;;;3.73;;
8225;SDS011;4154;48.810;9.012;2024-01-25T06:12:15;13.20;;;3.53;;
8225;SDS011;4154;48.810;9.012;2024-01-25T06:14:41;10.60;;;3.00;;
8225;SDS011;4154;48.810;9.012;2024-01-25T06:17:07;15.53;;;3.50;;
8225;SDS011;4154;48.810;9.012;2024-01-25T06:19:33;12.03;;;3.13;;
8225;SDS011;4154;48.810;9.012;2024-01-25T06:21:59;12.23;;;3.20;;
8225;SDS011;4154;48.810;9.012;2024-01-25T06:24:25;16.10;;;3.47;;
8225;SDS011;4154;48.810;9.012;2024-01-25T06:26:52;15.70;;;3.37;;
8225;SDS011;4154;48.810;9.012;2024-01-25T06:29:18;16.83;;;3.40;;
8225;SDS011;4154;48.810;9.012;2024-01-25T06:31:43;13.43;;;3.10;;
8225;SDS011;4154;48.810;9.012;2024-01-25T06:34:10;12.97;;;3.37;;
8225;SDS011;4154;48.810;9.012;2024-01-25T06:36:36;14.13;;;3.40;;
8225;SDS011;4154;48.810;9.012;2024-01-25T06:39:02;17.23;;;3.83;;
8225;SDS011;4154;48.810;9.012;2024-01-25T06:41:31;11.67;;;3.40;;
8225;SDS011;4154;48.810;9.012;2024-01-25T06:43:58;11.87;;;3.50;;
8225;SDS011;4154;48.810;9.012;2024-01-25T06:46:24;12.30;;;3.13;;
8225;SDS011;4154;48.810;9.012;2024-01-25T06:48:50;13.77;;;3.63;;
8225;SDS011;4154;48.810;9.012;2024-01-25T06:51:16;11.70;;;3.40;;
8225;SDS011;4154;48.810;9.012;2024-01-25T06:53:42;13.67;;;3.63;;
8225;SDS011;4154;48.810;9.012;2024-01-25T06:56:08;12.63;;;3.50;;
8225;SDS011;4154;48.810;9.012;2024-01-25T06:58:34;11.67;;;3.10;;
8225;SDS011;4154;48.810;9.012;2024-01-25T07:00:59;12.93;;;3.20;;
8225;SDS011;4154;48.810;9.012;2024-01-25T07:03:25;15.37;;;4.00;;
8225;SDS011;4154;48.810;9.012;2024-01-25T07:05:51;16.77;;;3.50;;
8225;SDS011;4154;48.810;9.012;2024-01-25T07:08:17;13.07;;;3.57;;
8225;SDS011;4154;48.810;9.012;2024-01-25T07:10:43;14.23;;;3.40;;
8225;SDS011;4154;48.810;9.012;2024-01-25T07:13:10;15.37;;;3.90;;
8225;SDS011;4154;48.810;9.012;2024-01-25T07:15:35;9.80;;;3.57;;
8225;SDS011;4154;48.810;9.012;2024-01-25T07:18:01;10.53;;;3.00;;
8225;SDS011;4154;48.810;9.012;2024-01-25T07:20:28;9.70;;;2.93;;
8225;SDS011;4154;48.810;9.012;2024-01-25T07:22:54;12.03;;;3.60;;
8225;SDS011;4154;48.810;9.012;2024-01-25T07:25:19;10.93;;;2.97;;
8225;SDS011;4154;48.810;9.012;2024-01-25T07:27:45;11.87;;;3.37;;
8225;SDS011;4154;48.810;9.012;2024-01-25T07:30:12;10.23;;;3.33;;
8225;SDS011;4154;48.810;9.012;2024-01-25T07:32:39;11.17;;;3.10;;
8225;SDS011;4154;48.810;9.012;2024-01-25T07:35:07;14.13;;;3.87;;
8225;SDS011;4154;48.810;9.012;2024-01-25T07:37:37;12.33;;;3.47;;
8225;SDS011;4154;48.810;9.012;2024-01-25T07:40:04;11.60;;;3.20;;
8225;SDS011;4154;48.810;9.012;2024-01-25T07:42:31;11.50;;;3.00;;
8225;SDS011;4154;48.810;9.012;2024-01-25T07:44:57;9.33;;;3.30;;
8225;SDS011;4154;48.810;9.012;2024-01-25T07:47:23;14.13;;;3.80;;
8225;SDS011;4154;48.810;9.012;2024-01-25T07:49:49;10.90;;;3.27;;
8225;SDS011;4154;48.810;9.012;2024-01-25T07:52:14;10.40;;;3.37;;
8225;SDS011;4154;48.810;9.012;2024-01-25T07:54:40;10.60;;;3.33;;
8225;SDS011;4154;48.810;9.012;2024-01-25T07:57:06;13.00;;;3.47;;
8225;SDS011;4154;48.810;9.012;2024-01-25T07:59:31;11.87;;;3.97;;
8225;SDS011;4154;48.810;9.012;2024-01-25T08:01:57;10.10;;;2.90;;
8225;SDS011;4154;48.810;9.012;2024-01-25T08:04:23;12.97;;;4.03;;
8225;SDS011;4154;48.810;9.012;2024-01-25T08:06:48;12.00;;;3.40;;
8225;SDS011;4154;48.810;9.012;2024-01-25T08:09:14;12.13;;;3.37;;
8225;SDS011;4154;48.810;9.012;2024-01-25T08:11:39;12.53;;;2.97;;
8225;SDS011;4154;48.810;9.012;2024-01-25T08:14:06;12.53;;;3.43;;
8225;SDS011;4154;48.810;9.012;2024-01-25T08:16:32;15.37;;;3.53;;
8225;SDS011;4154;48.810;9.012;2024-01-25T08:19:00;10.27;;;3.40;;
8225;SDS011;4154;48.810;9.012;2024-01-25T08:21:25;13.30;;;3.50;;
8225;SDS011;4154;48.810;9.012;2024-01-25T08:23:51;11.80;;;3.30;;
8225;SDS011;4154;48.810;9.012;2024-01-25T08:26:16;14.43;;;4.07;;
8225;SDS011;4154;48.810;9.012;2024-01-25T08:28:42;11.10;;;3.43;;
8225;SDS011;4154;48.810;9.012;2024-01-25T08:31:09;12.57;;;3.57;;
8225;SDS011;4154;48.810;9.012;2024-01-25T08:33:35;7.97;;;2.90;;
8225;SDS011;4154;48.810;9.012;2024-01-25T08:36:06;10.83;;;2.80;;
8225;SDS011;4154;48.810;9.012;2024-01-25T08:38:32;11.80;;;3.23;;
8225;SDS011;4154;48.810;9.012;2024-01-25T08:40:58;9.30;;;3.03;;
8225;SDS011;4154;48.810;9.012;2024-01-25T08:43:24;10.93;;;3.37;;
8225;SDS011;4154;48.810;9.012;2024-01-25T08:45:49;11.77;;;3.13;;
8225;SDS011;4154;48.810;9.012;2024-01-25T08:48:15;9.40;;;2.77;;
8225;SDS011;4154;48.810;9.012;2024-01-25T08:50:41;13.03;;;3.37;;
8225;SDS011;4154;48.810;9.012;2024-01-25T08:53:07;12.70;;;3.63;;
8225;SDS011;4154;48.810;9.012;2024-01-25T08:55:33;12.13;;;3.17;;
8225;SDS011;4154;48.810;9.012;2024-01-25T08:57:59;10.90;;;3.20;;
8225;SDS011;4154;48.810;9.012;2024-01-25T09:00:24;10.00;;;3.03;;
8225;SDS011;4154;48.810;9.012;2024-01-25T09:02:50;9.93;;;2.67;;
8225;SDS011;4154;48.810;9.012;2024-01-25T09:05:16;11.07;;;3.07;;
8225;SDS011;4154;48.810;9.012;2024-01-25T09:07:41;10.03;;;3.50;;
8225;SDS011;4154;48.810;9.012;2024-01-25T09:10:07;9.33;;;3.07;;
8225;SDS011;4154;48.810;9.012;2024-01-25T09:12:34;9.50;;;2.90;;
8225;SDS011;4154;48.810;9.012;2024-01-25T09:15:00;10.43;;;3.27;;
8225;SDS011;4154;48.810;9.012;2024-01-25T09:17:27;11.50;;;3.10;;
8225;SDS011;4154;48.810;9.012;2024-01-25T09:19:53;11.80;;;3.03;;
8225;SDS011;4154;48.810;9.012;2024-01-25T09:22:19;12.43;;;3.80;;
8225;SDS011;4154;48.810;9.012;2024-01-25T09:24:45;10.40;;;3.27;;
8225;SDS011;4154;48.810;9.012;2024-01-25T09:27:12;10.97;;;2.93;;
8225;SDS011;4154;48.810;9.012;2024-01-25T09:29:39;8.60;;;2.70;;
8225;SDS011;4154;48.810;9.012;2024-01-25T09:32:06;13.50;;;3.83;;
8225;SDS011;4154;48.810;9.012;2024-01-25T09:34:36;10.73;;;3.00;;
8225;SDS011;4154;48.810;9.012;2024-01-25T09:37:03;9.60;;;3.20;;
8225;SDS011;4154;48.810;9.012;2024-01-25T09:39:30;12.60;;;3.23;;
8225;SDS011;4154;48.810;9.012;2024-01-25T09:41:57;12.87;;;3.07;;
8225;SDS011;4154;48.810;9.012;2024-01-25T09:44:23;9.07;;;2.83;;
8225;SDS011;4154;48.810;9.012;2024-01-25T09:46:50;10.37;;;3.03;;
8225;SDS011;4154;48.810;9.012;2024-01-25T09:49:16;13.13;;;3.57;;
8225;SDS011;4154;48.810;9.012;2024-01-25T09:51:43;10.83;;;2.97;;
8225;SDS011;4154;48.810;9.012;2024-01-25T09:54:09;11.70;;;2.83;;
8225;SDS011;4154;48.810;9.012;2024-01-25T09:56:35;10.93;;;3.33;;
8225;SDS011;4154;48.810;9.012;2024-01-25T09:59:01;10.70;;;3.00;;
8225;SDS011;4154;48.810;9.012;2024-01-25T10:01:29;10.77;;;3.13;;
8225;SDS011;4154;48.810;9.012;2024-01-25T10:03:56;10.73;;;3.10;;
8225;SDS011;4154;48.810;9.012;2024-01-25T10:06:22;10.30;;;3.30;;
8225;SDS011;4154;48.810;9.012;2024-01-25T10:08:48;13.57;;;3.07;;
8225;SDS011;4154;48.810;9.012;2024-01-25T10:11:14;10.53;;;2.90;;
8225;SDS011;4154;48.810;9.012;2024-01-25T10:13:41;8.83;;;2.80;;
8225;SDS011;4154;48.810;9.012;2024-01-25T10:16:19;10.07;;;2.90;;
8225;SDS011;4154;48.810;9.012;2024-01-25T10:18:47;10.13;;;2.80;;
8225;SDS011;4154;48.810;9.012;2024-01-25T10:21:14;9.63;;;2.93;;
8225;SDS011;4154;48.810;9.012;2024-01-25T10:23:41;9.80;;;2.87;;
8225;SDS011;4154;48.810;9.012;2024-01-25T10:26:13;11.67;;;3.20;;
8225;SDS011;4154;48.810;9.012;2024-01-25T10:28:39;11.17;;;3.07;;
8225;SDS011;4154;48.810;9.012;2024-01-25T10:31:05;10.37;;;2.90;;
8225;SDS011;4154;48.810;9.012;2024-01-25T10:33:32;9.77;;;3.23;;
8225;SDS011;4154;48.810;9.012;2024-01-25T10:36:02;8.40;;;2.53;;
8225;SDS011;4154;48.810;9.012;2024-01-25T10:38:29;10.53;;;2.60;;
8225;SDS011;4154;48.810;9.012;2024-01-25T10:41:03;8.53;;;2.40;;
8225;SDS011;4154;48.810;9.012;2024-01-25T10:43:30;8.47;;;2.50;;
8225;SDS011;4154;48.810;9.012;2024-01-25T10:45:57;11.03;;;2.57;;
8225;SDS011;4154;48.810;9.012;2024-01-25T10:48:24;7.33;;;2.20;;
8225;SDS011;4154;48.810;9.012;2024-01-25T10:50:51;10.10;;;2.63;;
8225;SDS011;4154;48.810;9.012;2024-01-25T10:53:19;8.03;;;2.50;;
8225;SDS011;4154;48.810;9.012;2024-01-25T10:55:46;8.93;;;2.57;;
8225;SDS011;4154;48.810;9.012;2024-01-25T10:58:13;9.37;;;2.53;;
8225;SDS011;4154;48.810;9.012;2024-01-25T11:00:40;7.97;;;2.73;;
8225;SDS011;4154;48.810;9.012;2024-01-25T11:03:13;7.67;;;2.23;;
8225;SDS011;4154;48.810;9.012;2024-01-25T11:05:39;13.80;;;2.57;;
8225;SDS011;4154;48.810;9.012;2024-01-25T11:08:05;7.50;;;2.70;;
8225;SDS011;4154;48.810;9.012;2024-01-25T11:10:50;6.60;;;2.30;;
8225;SDS011;4154;48.810;9.012;2024-01-25T11:13:17;7.67;;;2.63;;
8225;SDS011;4154;48.810;9.012;2024-01-25T11:15:51;6.70;;;2.40;;
8225;SDS011;4154;48.810;9.012;2024-01-25T11:18:17;9.13;;;2.80;;
8225;SDS011;4154;48.810;9.012;2024-01-25T11:20:46;7.10;;;2.40;;
8225;SDS011;4154;48.810;9.012;2024-01-25T11:23:14;9.80;;;2.60;;
8225;SDS011;4154;48.810;9.012;2024-01-25T11:25:44;10.37;;;2.60;;
8225;SDS011;4154;48.810;9.012;2024-01-25T11:28:11;7.83;;;2.37;;
8225;SDS011;4154;48.810;9.012;2024-01-25T11:30:41;9.83;;;2.73;;
8225;SDS011;4154;48.810;9.012;2024-01-25T11:33:09;9.13;;;3.00;;
8225;SDS011;4154;48.810;9.012;2024-01-25T11:35:36;9.33;;;2.57;;
8225;SDS011;4154;48.810;9.012;2024-01-25T11:38:02;9.87;;;2.67;;
8225;SDS011;4154;48.810;9.012;2024-01-25T11:40:29;8.77;;;2.30;;
8225;SDS011;4154;48.810;9.012;2024-01-25T11:42:56;9.77;;;3.07;;
8225;SDS011;4154;48.810;9.012;2024-01-25T11:45:22;6.03;;;2.10;;
8225;SDS011;4154;48.810;9.012;2024-01-25T11:47:48;9.67;;;2.50;;
8225;SDS011;4154;48.810;9.012;2024-01-25T11:50:14;7.47;;;2.30;;
8225;SDS011;4154;48.810;9.012;2024-01-25T11:52:40;9.30;;;3.00;;
8225;SDS011;4154;48.810;9.012;2024-01-25T11:55:06;7.17;;;2.30;;
8225;SDS011;4154;48.810;9.012;2024-01-25T11:57:34;10.53;;;2.47;;
8225;SDS011;4154;48.810;9.012;2024-01-25T12:00:07;9.93;;;2.60;;
8225;SDS011;4154;48.810;9.012;2024-01-25T12:02:38;5.53;;;2.07;;
8225;SDS011;4154;48.810;9.012;2024-01-25T12:05:04;7.37;;;2.30;;
8225;SDS011;4154;48.810;9.012;2024-01-25T12:07:31;8.97;;;2.23;;
8225;SDS011;4154;48.810;9.012;2024-01-25T12:10:07;6.23;;;2.13;;
8225;SDS011;4154;48.810;9.012;2024-01-25T12:12:40;9.57;;;2.80;;
8225;SDS011;4154;48.810;9.012;2024-01-25T12:15:06;7.53;;;2.13;;
8225;SDS011;4154;48.810;9.012;2024-01-25T12:17:33;7.23;;;2.27;;
8225;SDS011;4154;48.810;9.012;2024-01-25T12:20:03;8.93;;;3.03;;
8225;SDS011;4154;48.810;9.012;2024-01-25T12:22:35;9.57;;;2.40;;
8225;SDS011;4154;48.810;9.012;2024-01-25T12:25:08;6.33;;;2.27;;
8225;SDS011;4154;48.810;9.012;2024-01-25T12:27:38;9.10;;;2.47;;
8225;SDS011;4154;48.810;9.012;2024-01-25T12:30:06;7.70;;;2.20;;
8225;SDS011;4154;48.810;9.012;2024-01-25T12:32:33;7.40;;;2.17;;
8225;SDS011;4154;48.810;9.012;2024-01-25T12:35:00;8.07;;;2.20;;
8225;SDS011;4154;48.810;9.012;2024-01-25T12:37:26;6.50;;;1.83;;
8225;SDS011;4154;48.810;9.012;2024-01-25T12:39:53;6.97;;;2.37;;
8225;SDS011;4154;48.810;9.012;2024-01-25T12:42:19;8.97;;;2.20;;
8225;SDS011;4154;48.810;9.012;2024-01-25T12:44:45;7.90;;;2.27;;
8225;SDS011;4154;48.810;9.012;2024-01-25T12:47:12;8.03;;;2.33;;
8225;SDS011;4154;48.810;9.012;2024-01-25T12:49:41;5.77;;;2.17;;
8225;SDS011;4154;48.810;9.012;2024-01-25T12:52:10;10.33;;;2.53;;
8225;SDS011;4154;48.810;9.012;2024-01-25T12:54:39;6.80;;;2.47;;
8225;SDS011;4154;48.810;9.012;2024-01-25T12:57:05;5.40;;;1.67;;
8225;SDS011;4154;48.810;9.012;2024-01-25T12:59:32;5.47;;;2.17;;
8225;SDS011;4154;48.810;9.012;2024-01-25T13:02:00;6.50;;;2.10;;
8225;SDS011;4154;48.810;9.012;2024-01-25T13:04:26;7.27;;;2.30;;
8225;SDS011;4154;48.810;9.012;2024-01-25T13:06:52;6.33;;;2.10;;
8225;SDS011;4154;48.810;9.012;2024-01-25T13:09:20;4.40;;;1.87;;
8225;SDS011;4154;48.810;9.012;2024-01-25T13:11:46;4.70;;;1.90;;
8225;SDS011;4154;48.810;9.012;2024-01-25T13:14:12;3.83;;;2.00;;
8225;SDS011;4154;48.810;9.012;2024-01-25T13:16:38;8.03;;;2.20;;
8225;SDS011;4154;48.810;9.012;2024-01-25T13:19:04;5.23;;;2.43;;
8225;SDS011;4154;48.810;9.012;2024-01-25T13:21:31;10.33;;;2.50;;
8225;SDS011;4154;48.810;9.012;2024-01-25T13:23:58;8.13;;;2.40;;
8225;SDS011;4154;48.810;9.012;2024-01-25T13:26:25;7.00;;;2.23;;
8225;SDS011;4154;48.810;9.012;2024-01-25T13:28:51;8.63;;;2.50;;
8225;SDS011;4154;48.810;9.012;2024-01-25T13:31:17;8.37;;;1.97;;
8225;SDS011;4154;48.810;9.012;2024-01-25T13:33:43;4.57;;;1.70;;
8225;SDS011;4154;48.810;9.012;2024-01-25T13:36:17;5.23;;;1.90;;
8225;SDS011;4154;48.810;9.012;2024-01-25T13:38:42;6.20;;;1.90;;
8225;SDS011;4154;48.810;9.012;2024-01-25T13:41:08;5.60;;;2.30;;
8225;SDS011;4154;48.810;9.012;2024-01-25T13:43:34;3.87;;;1.70;;
8225;SDS011;4154;48.810;9.012;2024-01-25T13:45:59;5.20;;;2.20;;
8225;SDS011;4154;48.810;9.012;2024-01-25T13:48:25;6.77;;;2.10;;
8225;SDS011;4154;48.810;9.012;2024-01-25T13:50:51;6.67;;;2.27;;
8225;SDS011;4154;48.810;9.012;2024-01-25T13:53:17;6.73;;;2.13;;
8225;SDS011;4154;48.810;9.012;2024-01-25T13:55:43;7.13;;;2.10;;
8225;SDS011;4154;48.810;9.012;2024-01-25T13:58:09;7.57;;;2.40;;
8225;SDS011;4154;48.810;9.012;2024-01-25T14:00:35;8.77;;;2.67;;
8225;SDS011;4154;48.810;9.012;2024-01-25T14:03:01;5.83;;;2.07;;
8225;SDS011;4154;48.810;9.012;2024-01-25T14:05:28;5.40;;;1.80;;
8225;SDS011;4154;48.810;9.012;2024-01-25T14:07:54;6.50;;;2.90;;
8225;SDS011;4154;48.810;9.012;2024-01-25T14:10:20;5.23;;;1.80;;
8225;SDS011;4154;48.810;9.012;2024-01-25T14:12:46;5.83;;;1.80;;
8225;SDS011;4154;48.810;9.012;2024-01-25T14:15:12;6.13;;;2.00;;
8225;SDS011;4154;48.810;9.012;2024-01-25T14:17:38;5.90;;;1.80;;
8225;SDS011;4154;48.810;9.012;2024-01-25T14:20:05;6.20;;;1.90;;
8225;SDS011;4154;48.810;9.012;2024-01-25T14:22:31;8.37;;;1.80;;
8225;SDS011;4154;48.810;9.012;2024-01-25T14:24:58;5.93;;;1.80;;
8225;SDS011;4154;48.810;9.012;2024-01-25T14:27:28;6.13;;;2.13;;
8225;SDS011;4154;48.810;9.012;2024-01-25T14:29:57;6.00;;;2.00;;
8225;SDS011;4154;48.810;9.012;2024-01-25T14:32:25;5.63;;;1.93;;
8225;SDS011;4154;48.810;9.012;2024-01-25T14:34:51;6.23;;;1.90;;
8225;SDS011;4154;48.810;9.012;2024-01-25T14:37:16;5.00;;;2.20;;
8225;SDS011;4154;48.810;9.012;2024-01-25T14:39:42;6.27;;;2.00;;
8225;SDS011;4154;48.810;9.012;2024-01-25T14:42:09;7.00;;;2.20;;
8225;SDS011;4154;48.810;9.012;2024-01-25T14:44:38;5.43;;;2.13;;
8225;SDS011;4154;48.810;9.012;2024-01-25T14:47:07;5.63;;;2.03;;
8225;SDS011;4154;48.810;9.012;2024-01-25T14:49:34;6.87;;;2.33;;
8225;SDS011;4154;48.810;9.012;2024-01-25T14:52:00;6.57;;;2.17;;
8225;SDS011;4154;48.810;9.012;2024-01-25T14:54:26;6.53;;;1.93;;
8225;SDS011;4154;48.810;9.012;2024-01-25T14:56:52;9.13;;;2.43;;
8225;SDS011;4154;48.810;9.012;2024-01-25T14:59:21;5.87;;;1.93;;
8225;SDS011;4154;48.810;9.012;2024-01-25T15:01:47;6.43;;;1.90;;
8225;SDS011;4154;48.810;9.012;2024-01-25T15:04:13;5.77;;;2.40;;